createdAt,value
2017-12-30T00:02:06.669Z,86.21
2017-12-30T00:04:35.896Z,86.07
2017-12-30T00:07:05.118Z,85.93
2017-12-30T00:09:34.334Z,86.27
2017-12-30T00:12:03.595Z,86.36
2017-12-30T00:14:32.805Z,86.23
2017-12-30T00:17:02.027Z,85.83
2017-12-30T00:19:31.200Z,85.61
2017-12-30T00:22:00.423Z,85.50
2017-12-30T00:24:29.619Z,85.60
2017-12-30T00:26:58.823Z,85.32
2017-12-30T00:29:28.008Z,85.15
2017-12-30T00:31:57.243Z,84.60
2017-12-30T00:34:26.432Z,84.42
2017-12-30T00:36:56.413Z,84.78
2017-12-30T00:39:25.744Z,84.24
2017-12-30T00:41:55.694Z,84.07
2017-12-30T00:44:24.890Z,84.12
2017-12-30T00:46:54.819Z,84.00
2017-12-30T00:49:24.003Z,83.52
2017-12-30T00:51:53.195Z,83.53
2017-12-30T00:54:22.416Z,83.17
2017-12-30T00:56:51.626Z,82.88
2017-12-30T00:59:20.814Z,82.77
2017-12-30T01:01:49.998Z,82.68
2017-12-30T01:04:19.196Z,82.58
2017-12-30T01:06:48.369Z,82.51
2017-12-30T01:09:17.578Z,82.35
2017-12-30T01:11:46.778Z,82.41
2017-12-30T01:14:15.963Z,82.13
2017-12-30T01:16:45.172Z,82.32
2017-12-30T01:19:14.348Z,82.50
2017-12-30T01:21:43.592Z,82.67
2017-12-30T01:24:12.760Z,82.95
2017-12-30T01:26:42.045Z,82.57
2017-12-30T01:29:11.260Z,82.50
2017-12-30T01:31:40.477Z,82.51
2017-12-30T01:34:09.762Z,82.24
2017-12-30T01:36:38.954Z,82.13
2017-12-30T01:39:08.186Z,82.14
2017-12-30T01:41:38.211Z,82.25
2017-12-30T01:44:07.398Z,82.19
2017-12-30T01:46:37.387Z,82.42
2017-12-30T01:49:06.666Z,82.33
2017-12-30T01:51:36.647Z,82.16
2017-12-30T01:54:05.786Z,81.83
2017-12-30T01:56:34.997Z,81.97
2017-12-30T01:59:04.172Z,81.79
2017-12-30T02:01:33.405Z,81.66
2017-12-30T02:04:02.586Z,81.84
2017-12-30T02:06:31.818Z,81.63
2017-12-30T02:09:01.005Z,81.44
2017-12-30T02:11:30.226Z,81.22
2017-12-30T02:14:00.196Z,81.02
2017-12-30T02:16:29.386Z,81.06
2017-12-30T02:18:58.592Z,81.11
2017-12-30T02:21:27.846Z,81.25
2017-12-30T02:23:57.869Z,81.27
2017-12-30T02:26:27.056Z,81.37
2017-12-30T02:28:57.006Z,81.26
2017-12-30T02:31:26.203Z,81.48
2017-12-30T02:33:55.566Z,81.49
2017-12-30T02:36:25.515Z,81.84
2017-12-30T02:38:54.724Z,81.66
2017-12-30T02:41:23.898Z,81.90
2017-12-30T02:43:53.093Z,81.79
2017-12-30T02:46:22.292Z,82.07
2017-12-30T02:48:51.479Z,82.13
2017-12-30T02:51:20.670Z,82.28
2017-12-30T02:53:50.664Z,82.35
2017-12-30T02:56:19.855Z,82.21
2017-12-30T02:58:49.061Z,82.15
2017-12-30T03:01:18.278Z,82.19
2017-12-30T03:03:48.294Z,82.30
2017-12-30T03:06:18.258Z,82.33
2017-12-30T03:08:47.447Z,82.34
2017-12-30T03:11:16.691Z,82.31
2017-12-30T03:13:46.646Z,82.35
2017-12-30T03:16:15.847Z,82.47
2017-12-30T03:18:45.058Z,82.33
2017-12-30T03:21:14.269Z,82.24
2017-12-30T03:23:43.466Z,82.12
2017-12-30T03:26:12.666Z,82.21
2017-12-30T03:28:41.857Z,82.24
2017-12-30T03:31:11.049Z,82.42
2017-12-30T03:33:40.267Z,82.31
2017-12-30T03:36:09.469Z,82.02
2017-12-30T03:38:38.654Z,82.18
2017-12-30T03:41:07.855Z,82.30
2017-12-30T03:43:37.061Z,82.57
2017-12-30T03:46:07.083Z,82.66
2017-12-30T03:48:36.310Z,82.57
2017-12-30T03:51:05.527Z,82.62
2017-12-30T03:53:34.725Z,82.54
2017-12-30T03:56:03.992Z,82.77
2017-12-30T03:58:34.174Z,82.77
2017-12-30T04:01:03.500Z,82.67
2017-12-30T04:03:32.678Z,82.59
2017-12-30T04:06:01.899Z,82.66
2017-12-30T04:08:31.861Z,82.63
2017-12-30T04:11:01.046Z,82.57
2017-12-30T04:13:30.266Z,82.64
2017-12-30T04:15:59.494Z,82.70
2017-12-30T04:18:28.731Z,82.86
2017-12-30T04:20:58.053Z,82.92
2017-12-30T04:23:27.232Z,82.92
2017-12-30T04:25:56.502Z,82.69
2017-12-30T04:28:26.445Z,82.80
2017-12-30T04:30:55.646Z,82.77
2017-12-30T04:33:24.830Z,82.89
2017-12-30T04:35:54.061Z,82.98
2017-12-30T04:38:23.234Z,82.73
2017-12-30T04:40:52.435Z,82.79
2017-12-30T04:43:21.626Z,82.54
2017-12-30T04:45:50.842Z,82.89
2017-12-30T04:48:20.041Z,82.84
2017-12-30T04:50:49.238Z,82.94
2017-12-30T04:53:18.465Z,82.74
2017-12-30T04:55:47.718Z,82.55
2017-12-30T04:58:16.915Z,82.70
2017-12-30T05:00:46.109Z,82.80
2017-12-30T05:03:15.292Z,82.58
2017-12-30T05:05:44.489Z,82.67
2017-12-30T05:08:13.790Z,82.81
2017-12-30T05:10:42.989Z,82.57
2017-12-30T05:13:12.184Z,82.59
2017-12-30T05:15:41.379Z,82.52
2017-12-30T05:18:11.366Z,82.52
2017-12-30T05:20:40.538Z,82.50
2017-12-30T05:23:09.741Z,82.37
2017-12-30T05:25:38.945Z,82.45
2017-12-30T05:28:08.122Z,82.34
2017-12-30T05:30:37.313Z,82.39
2017-12-30T05:33:06.514Z,82.45
2017-12-30T05:35:35.723Z,82.41
2017-12-30T05:38:04.931Z,82.49
2017-12-30T05:40:34.882Z,82.41
2017-12-30T05:43:04.246Z,82.21
2017-12-30T05:45:33.421Z,82.27
2017-12-30T05:48:02.610Z,82.12
2017-12-30T05:50:31.785Z,82.14
2017-12-30T05:53:00.997Z,82.05
2017-12-30T05:55:30.241Z,82.17
2017-12-30T05:57:59.502Z,82.13
2017-12-30T06:00:28.680Z,82.13
2017-12-30T06:02:57.895Z,81.94
2017-12-30T06:05:27.083Z,82.02
2017-12-30T06:07:56.284Z,81.84
2017-12-30T06:10:25.552Z,81.90
2017-12-30T06:12:54.802Z,82.40
2017-12-30T06:15:24.031Z,82.52
2017-12-30T06:17:54.034Z,82.44
2017-12-30T06:20:23.217Z,82.74
2017-12-30T06:22:52.445Z,83.14
2017-12-30T06:25:21.639Z,83.62
2017-12-30T06:27:51.596Z,83.96
2017-12-30T06:30:20.830Z,84.26
2017-12-30T06:32:50.004Z,84.79
2017-12-30T06:35:19.218Z,85.12
2017-12-30T06:37:48.414Z,85.46
2017-12-30T06:40:17.630Z,86.18
2017-12-30T06:42:46.806Z,86.64
2017-12-30T06:45:16.010Z,86.90
2017-12-30T06:47:45.185Z,87.27
2017-12-30T06:50:14.386Z,87.44
2017-12-30T06:52:43.550Z,87.61
2017-12-30T06:55:12.745Z,87.83
2017-12-30T06:57:41.935Z,87.65
2017-12-30T07:00:11.922Z,88.04
2017-12-30T07:02:41.116Z,88.19
2017-12-30T07:05:10.429Z,88.57
2017-12-30T07:07:40.380Z,88.68
2017-12-30T07:10:09.618Z,88.59
2017-12-30T07:12:38.865Z,88.75
2017-12-30T07:15:08.058Z,88.56
2017-12-30T07:17:37.254Z,88.67
2017-12-30T07:20:06.502Z,88.69
2017-12-30T07:22:35.698Z,88.50
2017-12-30T07:25:04.870Z,88.57
2017-12-30T07:27:34.115Z,88.17
2017-12-30T07:30:03.286Z,88.71
2017-12-30T07:32:32.505Z,88.40
2017-12-30T07:35:01.681Z,88.64
2017-12-30T07:37:30.925Z,88.60
2017-12-30T07:40:00.899Z,88.85
2017-12-30T07:42:30.246Z,88.58
2017-12-30T07:45:00.201Z,88.83
2017-12-30T07:47:29.422Z,88.75
2017-12-30T07:49:58.615Z,89.00
2017-12-30T07:52:27.786Z,88.79
2017-12-30T07:54:56.978Z,88.94
2017-12-30T07:57:26.280Z,88.81
2017-12-30T07:59:55.614Z,88.86
2017-12-30T08:02:24.794Z,88.98
2017-12-30T08:04:53.982Z,88.97
2017-12-30T08:07:23.173Z,89.02
2017-12-30T08:09:52.383Z,88.99
2017-12-30T08:12:21.566Z,89.38
2017-12-30T08:14:50.773Z,89.65
2017-12-30T08:17:19.973Z,89.56
2017-12-30T08:19:49.199Z,89.74
2017-12-30T08:22:19.244Z,89.85
2017-12-30T08:24:49.291Z,89.76
2017-12-30T08:27:18.502Z,89.92
2017-12-30T08:29:47.708Z,89.80
2017-12-30T08:32:16.896Z,90.01
2017-12-30T08:34:46.134Z,89.88
2017-12-30T08:37:16.121Z,89.72
2017-12-30T08:39:45.317Z,90.05
2017-12-30T08:42:14.514Z,89.68
2017-12-30T08:44:43.702Z,89.60
2017-12-30T08:47:12.896Z,89.87
2017-12-30T08:49:42.074Z,89.64
2017-12-30T08:52:11.258Z,89.63
2017-12-30T08:54:40.444Z,89.55
2017-12-30T08:57:10.403Z,89.43
2017-12-30T08:59:39.638Z,89.93
2017-12-30T09:02:08.839Z,90.16
2017-12-30T09:04:38.993Z,90.15
2017-12-30T09:07:08.513Z,90.03
2017-12-30T09:09:38.438Z,90.45
2017-12-30T09:12:07.617Z,90.63
2017-12-30T09:14:36.828Z,90.99
2017-12-30T09:17:06.006Z,91.16
2017-12-30T09:19:35.197Z,91.13
2017-12-30T09:22:04.395Z,91.46
2017-12-30T09:24:33.603Z,91.16
2017-12-30T09:27:02.777Z,91.50
2017-12-30T09:29:32.000Z,91.39
2017-12-30T09:32:01.179Z,90.80
2017-12-30T09:34:30.398Z,90.80
2017-12-30T09:36:59.594Z,90.71
2017-12-30T09:39:28.816Z,91.13
2017-12-30T09:41:57.986Z,90.78
2017-12-30T09:44:27.158Z,90.50
2017-12-30T09:46:56.561Z,90.39
2017-12-30T09:49:26.498Z,90.66
2017-12-30T09:51:55.709Z,90.65
2017-12-30T09:54:24.862Z,90.32
2017-12-30T09:56:54.845Z,90.45
2017-12-30T09:59:24.026Z,90.39
2017-12-30T10:01:53.208Z,90.35
2017-12-30T10:04:22.406Z,90.28
2017-12-30T10:06:51.590Z,90.11
2017-12-30T10:09:20.761Z,89.90
2017-12-30T10:11:49.953Z,89.80
2017-12-30T10:14:19.916Z,89.80
2017-12-30T10:16:49.090Z,90.02
2017-12-30T10:19:18.360Z,90.20
2017-12-30T10:21:48.441Z,90.49
2017-12-30T10:24:17.618Z,91.08
2017-12-30T10:26:46.888Z,91.34
2017-12-30T10:29:16.103Z,91.27
2017-12-30T10:31:45.280Z,91.18
2017-12-30T10:34:14.492Z,91.15
2017-12-30T10:36:43.709Z,90.80
2017-12-30T10:39:12.995Z,90.65
2017-12-30T10:41:42.354Z,90.74
2017-12-30T10:44:12.365Z,90.80
2017-12-30T10:46:42.322Z,90.99
2017-12-30T10:49:11.531Z,91.17
2017-12-30T10:51:40.714Z,91.40
2017-12-30T10:54:09.900Z,91.27
2017-12-30T10:56:39.857Z,91.26
2017-12-30T10:59:09.054Z,91.12
2017-12-30T11:01:38.253Z,91.26
2017-12-30T11:04:07.446Z,91.44
2017-12-30T11:06:36.642Z,91.89
2017-12-30T11:09:05.819Z,91.99
2017-12-30T11:11:35.054Z,92.14
2017-12-30T11:14:04.235Z,92.35
2017-12-30T11:16:33.435Z,92.42
2017-12-30T11:19:02.618Z,92.56
2017-12-30T11:21:31.879Z,92.82
2017-12-30T11:24:01.828Z,92.80
2017-12-30T11:26:31.091Z,93.08
2017-12-30T11:29:01.044Z,93.17
2017-12-30T11:31:30.270Z,93.18
2017-12-30T11:33:59.683Z,93.46
2017-12-30T11:36:28.960Z,93.41
2017-12-30T11:38:58.150Z,93.53
2017-12-30T11:41:27.349Z,93.93
2017-12-30T11:43:56.665Z,94.06
2017-12-30T11:46:25.890Z,94.08
2017-12-30T11:48:55.069Z,94.13
2017-12-30T11:51:24.260Z,94.21
2017-12-30T11:53:53.470Z,94.38
2017-12-30T11:56:22.671Z,94.61
2017-12-30T11:58:51.857Z,94.49
2017-12-30T12:01:21.126Z,94.16
2017-12-30T12:03:50.346Z,93.88
2017-12-30T12:06:19.556Z,93.66
2017-12-30T12:08:48.818Z,93.43
2017-12-30T12:11:18.014Z,93.14
2017-12-30T12:13:47.218Z,93.12
2017-12-30T12:16:17.281Z,92.68
2017-12-30T12:18:47.235Z,92.80
2017-12-30T12:21:16.454Z,92.85
2017-12-30T12:23:45.664Z,92.57
2017-12-30T12:26:14.871Z,92.08
2017-12-30T12:28:44.086Z,91.93
2017-12-30T12:31:14.057Z,91.63
2017-12-30T12:33:43.283Z,91.05
2017-12-30T12:36:12.520Z,90.90
2017-12-30T12:38:41.715Z,90.58
2017-12-30T12:41:10.914Z,90.04
2017-12-30T12:43:40.141Z,89.52
2017-12-30T12:46:09.335Z,89.21
2017-12-30T12:48:38.552Z,88.72
2017-12-30T12:51:07.837Z,88.51
2017-12-30T12:53:37.057Z,88.49
2017-12-30T12:56:06.251Z,88.59
2017-12-30T12:58:35.455Z,88.40
2017-12-30T13:01:05.456Z,88.22
2017-12-30T13:03:34.663Z,88.33
2017-12-30T13:06:03.921Z,88.31
2017-12-30T13:08:33.144Z,88.24
2017-12-30T13:11:02.359Z,88.17
2017-12-30T13:13:31.611Z,88.10
2017-12-30T13:16:00.846Z,88.02
2017-12-30T13:18:30.068Z,87.81
2017-12-30T13:20:59.302Z,87.63
2017-12-30T13:23:28.533Z,87.52
2017-12-30T13:25:57.711Z,87.48
2017-12-30T13:28:26.955Z,87.48
2017-12-30T13:30:56.162Z,87.15
2017-12-30T13:33:26.160Z,86.84
2017-12-30T13:35:55.352Z,86.83
2017-12-30T13:38:25.074Z,86.60
2017-12-30T13:40:55.732Z,86.76
2017-12-30T13:43:25.082Z,86.57
2017-12-30T13:45:54.304Z,86.45
2017-12-30T13:48:24.331Z,86.17
2017-12-30T13:50:54.321Z,85.88
2017-12-30T13:53:23.586Z,85.67
2017-12-30T13:55:52.818Z,85.68
2017-12-30T13:58:22.033Z,85.14
2017-12-30T14:00:52.014Z,85.06
2017-12-30T14:03:21.743Z,84.99
2017-12-30T14:05:51.079Z,84.83
2017-12-30T14:08:20.307Z,84.22
2017-12-30T14:10:49.526Z,84.51
2017-12-30T14:13:18.735Z,84.68
2017-12-30T14:15:47.976Z,84.99
2017-12-30T14:18:17.317Z,85.37
2017-12-30T14:20:46.518Z,85.12
2017-12-30T14:23:15.731Z,85.32
2017-12-30T14:25:44.966Z,84.94
2017-12-30T14:28:14.242Z,84.92
2017-12-30T14:30:44.290Z,84.82
2017-12-30T14:33:13.511Z,83.93
2017-12-30T14:35:42.748Z,83.88
2017-12-30T14:38:11.960Z,83.90
2017-12-30T14:40:41.158Z,81.76
2017-12-30T14:43:11.140Z,82.28
2017-12-30T14:45:40.393Z,82.87
2017-12-30T14:48:09.595Z,82.91
2017-12-30T14:50:38.878Z,82.09
2017-12-30T14:53:08.080Z,82.14
2017-12-30T14:55:37.330Z,82.36
2017-12-30T14:58:06.579Z,82.01
2017-12-30T15:00:35.771Z,82.47
2017-12-30T15:03:04.999Z,82.20
2017-12-30T15:05:34.205Z,81.47
2017-12-30T15:08:03.421Z,81.96
2017-12-30T15:10:32.606Z,82.18
2017-12-30T15:13:01.839Z,81.87
2017-12-30T15:15:31.038Z,81.93
2017-12-30T15:18:01.009Z,81.54
2017-12-30T15:20:30.230Z,81.71
2017-12-30T15:22:59.488Z,82.03
2017-12-30T15:25:28.722Z,82.80
2017-12-30T15:27:57.906Z,82.96
2017-12-30T15:30:27.299Z,82.87
2017-12-30T15:32:56.512Z,82.74
2017-12-30T15:35:25.702Z,82.17
2017-12-30T15:37:55.014Z,81.37
2017-12-30T15:40:24.267Z,81.93
2017-12-30T15:42:53.501Z,81.21
2017-12-30T15:45:22.707Z,81.42
2017-12-30T15:47:52.790Z,81.39
2017-12-30T15:50:22.018Z,81.42
2017-12-30T15:52:51.304Z,81.03
2017-12-30T15:55:21.250Z,80.84
2017-12-30T15:57:50.451Z,80.95
2017-12-30T16:00:19.665Z,81.17
2017-12-30T16:02:48.962Z,81.17
2017-12-30T16:05:18.963Z,81.33
2017-12-30T16:07:48.188Z,81.32
2017-12-30T16:10:18.233Z,81.34
2017-12-30T16:12:47.448Z,81.32
2017-12-30T16:15:16.671Z,81.38
2017-12-30T16:17:45.893Z,81.54
2017-12-30T16:20:15.168Z,81.39
2017-12-30T16:22:44.381Z,81.10
2017-12-30T16:25:14.374Z,81.17
2017-12-30T16:27:43.601Z,80.95
2017-12-30T16:30:13.589Z,80.75
2017-12-30T16:32:42.854Z,80.68
2017-12-30T16:35:12.057Z,80.41
2017-12-30T16:37:41.316Z,80.29
2017-12-30T16:40:10.515Z,80.19
2017-12-30T16:42:39.710Z,79.92
2017-12-30T16:45:08.931Z,79.88
2017-12-30T16:47:38.168Z,79.94
2017-12-30T16:50:07.399Z,79.63
2017-12-30T16:52:37.374Z,79.89
2017-12-30T16:55:06.598Z,79.66
2017-12-30T16:57:35.806Z,79.85
2017-12-30T17:00:05.034Z,79.67
2017-12-30T17:02:34.258Z,79.80
2017-12-30T17:05:03.508Z,80.01
2017-12-30T17:07:32.708Z,79.97
2017-12-30T17:10:01.941Z,79.50
2017-12-30T17:12:31.204Z,79.88
2017-12-30T17:15:00.414Z,79.90
2017-12-30T17:17:29.612Z,79.76
2017-12-30T17:19:58.943Z,79.92
2017-12-30T17:22:28.168Z,79.93
2017-12-30T17:24:57.399Z,79.95
2017-12-30T17:27:26.623Z,79.43
2017-12-30T17:29:55.904Z,79.88
2017-12-30T17:32:25.045Z,79.80
2017-12-30T17:34:54.252Z,79.93
2017-12-30T17:37:23.470Z,79.81
2017-12-30T17:39:53.526Z,79.97
2017-12-30T17:42:22.786Z,79.65
2017-12-30T17:44:52.765Z,79.72
2017-12-30T17:47:21.980Z,79.76
2017-12-30T17:49:51.196Z,79.84
2017-12-30T17:52:21.161Z,79.76
2017-12-30T17:54:50.410Z,80.06
2017-12-30T17:57:20.385Z,79.96
2017-12-30T17:59:49.606Z,79.95
2017-12-30T18:02:18.811Z,80.05
2017-12-30T18:04:48.799Z,80.06
2017-12-30T18:07:18.024Z,79.96
2017-12-30T18:09:48.020Z,80.01
2017-12-30T18:12:17.579Z,80.06
2017-12-30T18:14:46.788Z,80.00
2017-12-30T18:17:15.999Z,80.10
2017-12-30T18:19:45.197Z,80.11
2017-12-30T18:22:14.444Z,80.16
2017-12-30T18:24:44.442Z,80.08
2017-12-30T18:27:14.476Z,80.15
2017-12-30T18:29:44.798Z,80.03
2017-12-30T18:32:14.092Z,80.06
2017-12-30T18:34:43.399Z,79.98
2017-12-30T18:37:12.662Z,79.83
2017-12-30T18:39:41.895Z,79.98
2017-12-30T18:42:11.901Z,79.99
2017-12-30T18:44:41.135Z,79.94
2017-12-30T18:47:11.126Z,79.98
2017-12-30T18:49:42.384Z,79.99
2017-12-30T18:52:12.374Z,79.97
2017-12-30T18:54:42.385Z,80.09
2017-12-30T18:57:11.599Z,80.02
2017-12-30T18:59:41.579Z,80.05
2017-12-30T19:02:10.784Z,80.10
2017-12-30T19:04:40.055Z,80.19
2017-12-30T19:07:09.290Z,80.25
2017-12-30T19:09:38.467Z,80.23
2017-12-30T19:12:07.674Z,80.10
2017-12-30T19:14:37.073Z,79.91
2017-12-30T19:17:06.360Z,79.88
2017-12-30T19:19:35.696Z,79.85
2017-12-30T19:22:05.094Z,79.93
2017-12-30T19:24:34.334Z,79.88
2017-12-30T19:27:03.626Z,79.67
2017-12-30T19:29:32.900Z,79.74
2017-12-30T19:32:02.978Z,79.76
2017-12-30T19:34:32.385Z,79.54
2017-12-30T19:37:01.685Z,79.31
2017-12-30T19:39:30.984Z,79.40
2017-12-30T19:42:00.355Z,79.42
2017-12-30T19:44:29.738Z,79.55
2017-12-30T19:46:59.482Z,79.54
2017-12-30T19:49:28.945Z,79.45
2017-12-30T19:51:58.282Z,79.64
2017-12-30T19:54:27.765Z,79.69
2017-12-30T19:56:57.227Z,79.44
2017-12-30T19:59:26.758Z,79.78
2017-12-30T20:01:56.353Z,79.80
2017-12-30T20:04:25.771Z,79.58
2017-12-30T20:06:55.198Z,79.77
2017-12-30T20:09:24.916Z,79.97
2017-12-30T20:11:54.999Z,80.10
2017-12-30T20:14:25.013Z,80.19
2017-12-30T20:16:55.019Z,80.33
2017-12-30T20:19:25.141Z,80.39
2017-12-30T20:21:55.985Z,80.80
2017-12-30T20:24:25.982Z,80.76
2017-12-30T20:26:56.248Z,80.84
2017-12-30T20:29:25.499Z,80.92
2017-12-30T20:31:54.727Z,81.01
2017-12-30T20:34:24.068Z,81.10
2017-12-30T20:36:54.569Z,81.10
2017-12-30T20:39:24.636Z,81.10
2017-12-30T20:41:54.082Z,81.00
2017-12-30T20:44:23.473Z,80.82
2017-12-30T20:46:52.743Z,80.69
2017-12-30T20:49:22.546Z,80.72
2017-12-30T20:51:52.494Z,80.80
2017-12-30T20:54:22.710Z,80.63
2017-12-30T20:56:52.264Z,80.84
2017-12-30T20:59:22.396Z,80.89
2017-12-30T21:01:52.551Z,80.87
2017-12-30T21:04:22.655Z,80.72
2017-12-30T21:06:53.211Z,80.86
2017-12-30T21:09:23.872Z,80.67
2017-12-30T21:11:53.301Z,80.63
2017-12-30T21:14:22.952Z,80.61
2017-12-30T21:16:52.353Z,80.25
2017-12-30T21:19:21.707Z,80.45
2017-12-30T21:21:51.224Z,80.36
2017-12-30T21:24:21.105Z,80.48
2017-12-30T21:26:51.188Z,80.67
2017-12-30T21:29:21.095Z,80.90
2017-12-30T21:31:50.474Z,81.06
2017-12-30T21:34:20.293Z,81.16
2017-12-30T21:36:50.068Z,81.17
2017-12-30T21:39:20.133Z,81.07
2017-12-30T21:41:49.477Z,80.89
2017-12-30T21:44:20.354Z,80.92
2017-12-30T21:46:49.596Z,80.92
2017-12-30T21:49:19.721Z,81.00
2017-12-30T21:51:49.496Z,80.99
2017-12-30T21:54:19.540Z,81.04
2017-12-30T21:56:48.831Z,80.94
2017-12-30T21:59:18.134Z,80.98
2017-12-30T22:01:49.091Z,81.18
2017-12-30T22:04:18.306Z,81.16
2017-12-30T22:06:47.546Z,81.15
2017-12-30T22:09:16.793Z,81.15
2017-12-30T22:11:46.020Z,81.11
2017-12-30T22:14:15.305Z,81.21
2017-12-30T22:16:45.437Z,80.92
2017-12-30T22:19:14.706Z,80.88
2017-12-30T22:21:43.942Z,80.91
2017-12-30T22:24:13.988Z,81.02
2017-12-30T22:26:43.948Z,81.29
2017-12-30T22:29:13.158Z,81.45
2017-12-30T22:31:42.379Z,81.57
2017-12-30T22:34:12.382Z,81.70
2017-12-30T22:49:47.507Z,87.30
2017-12-30T22:52:16.833Z,87.72
2017-12-30T22:54:46.064Z,87.78
2017-12-30T22:57:15.277Z,88.11
2017-12-30T22:59:44.542Z,87.96
2017-12-30T23:02:13.750Z,88.14
2017-12-30T23:04:42.984Z,88.20
2017-12-30T23:07:12.231Z,88.03
2017-12-30T23:09:41.442Z,87.82
2017-12-30T23:12:11.166Z,87.99
2017-12-30T23:14:40.386Z,87.53
2017-12-30T23:17:09.785Z,87.61
2017-12-30T23:19:39.015Z,87.91
2017-12-30T23:22:08.962Z,88.29
2017-12-30T23:24:39.048Z,88.55
2017-12-30T23:27:09.010Z,88.51
2017-12-30T23:29:38.222Z,88.58
2017-12-30T23:32:07.438Z,88.41
2017-12-30T23:34:36.665Z,88.32
2017-12-30T23:37:06.643Z,88.33
2017-12-30T23:39:35.866Z,88.32
2017-12-30T23:42:05.874Z,88.32
2017-12-30T23:44:35.099Z,88.44
2017-12-30T23:47:04.310Z,88.67
2017-12-30T23:49:33.573Z,88.89
2017-12-30T23:52:04.176Z,89.02
2017-12-30T23:54:33.416Z,88.77
2017-12-30T23:57:02.626Z,88.77
2017-12-30T23:59:31.851Z,88.69
